sensor_id;sensor_type;location;lat;lon;timestamp;temperature;humidity
19000;DHT22;9633;50.980;13.850;2023-06-10T07:06:21;27.40;1.00
19000;DHT22;9633;50.980;13.850;2023-06-10T07:07:55;28.70;1.00
19000;DHT22;9633;50.980;13.850;2023-06-10T08:18:27;24.00;1.00
19000;DHT22;9633;50.980;13.850;2023-06-10T08:21:34;24.10;1.00
19000;DHT22;9633;50.980;13.850;2023-06-10T08:23:08;24.30;1.00
19000;DHT22;9633;50.980;13.850;2023-06-10T08:29:25;26.80;1.00
19000;DHT22;9633;50.980;13.850;2023-06-10T08:30:59;27.40;1.00
19000;DHT22;9633;50.980;13.850;2023-06-10T08:32:32;28.10;1.00
19000;DHT22;9633;50.980;13.850;2023-06-10T08:34:05;28.30;1.00
19000;DHT22;9633;50.980;13.850;2023-06-10T08:37:12;27.70;1.00
19000;DHT22;9633;50.980;13.850;2023-06-10T08:38:45;27.90;1.00
19000;DHT22;9633;50.980;13.850;2023-06-10T08:40:18;27.70;1.00
19000;DHT22;9633;50.980;13.850;2023-06-10T08:42:08;27.50;1.00
19000;DHT22;9633;50.980;13.850;2023-06-10T08:43:46;27.90;1.00
19000;DHT22;9633;50.980;13.850;2023-06-10T08:45:23;27.30;1.00
19000;DHT22;9633;50.980;13.850;2023-06-10T08:46:59;27.10;1.00
19000;DHT22;9633;50.980;13.850;2023-06-10T08:48:34;27.20;1.00
19000;DHT22;9633;50.980;13.850;2023-06-10T08:51:45;26.70;1.00
19000;DHT22;9633;50.980;13.850;2023-06-10T08:59:38;24.50;1.00
19000;DHT22;9633;50.980;13.850;2023-06-10T09:01:13;24.50;1.00
19000;DHT22;9633;50.980;13.850;2023-06-10T09:05:55;25.50;1.00
19000;DHT22;9633;50.980;13.850;2023-06-10T09:10:40;26.10;1.00
19000;DHT22;9633;50.980;13.850;2023-06-10T09:12:14;26.90;1.00
19000;DHT22;9633;50.980;13.850;2023-06-10T09:13:47;27.30;1.00
19000;DHT22;9633;50.980;13.850;2023-06-10T09:15:21;27.80;1.00
19000;DHT22;9633;50.980;13.850;2023-06-10T09:16:55;27.60;1.00
19000;DHT22;9633;50.980;13.850;2023-06-10T09:18:30;27.90;1.00
19000;DHT22;9633;50.980;13.850;2023-06-10T09:20:04;29.30;10.40
19000;DHT22;9633;50.980;13.850;2023-06-10T09:21:41;30.50;21.60
19000;DHT22;9633;50.980;13.850;2023-06-10T09:23:15;31.10;42.40
19000;DHT22;9633;50.980;13.850;2023-06-10T09:24:49;31.00;65.20
19000;DHT22;9633;50.980;13.850;2023-06-10T09:26:28;31.50;77.40
19000;DHT22;9633;50.980;13.850;2023-06-10T09:28:04;31.60;82.10
19000;DHT22;9633;50.980;13.850;2023-06-10T09:29:47;31.50;85.70
19000;DHT22;9633;50.980;13.850;2023-06-10T09:31:24;29.10;76.20
19000;DHT22;9633;50.980;13.850;2023-06-10T09:32:59;29.40;73.60
19000;DHT22;9633;50.980;13.850;2023-06-10T09:34:33;28.60;69.90
19000;DHT22;9633;50.980;13.850;2023-06-10T09:36:06;28.30;63.70
19000;DHT22;9633;50.980;13.850;2023-06-10T09:37:39;28.70;61.60
19000;DHT22;9633;50.980;13.850;2023-06-10T09:39:18;28.90;64.40
19000;DHT22;9633;50.980;13.850;2023-06-10T09:40:52;29.50;64.60
19000;DHT22;9633;50.980;13.850;2023-06-10T09:42:25;29.70;66.90
19000;DHT22;9633;50.980;13.850;2023-06-10T09:43:59;29.20;70.00
19000;DHT22;9633;50.980;13.850;2023-06-10T09:45:32;29.40;70.60
19000;DHT22;9633;50.980;13.850;2023-06-10T09:47:06;30.10;68.50
19000;DHT22;9633;50.980;13.850;2023-06-10T09:48:43;30.50;73.60
19000;DHT22;9633;50.980;13.850;2023-06-10T09:50:16;31.60;74.00
19000;DHT22;9633;50.980;13.850;2023-06-10T09:51:50;31.50;76.80
19000;DHT22;9633;50.980;13.850;2023-06-10T09:53:24;32.00;82.20
19000;DHT22;9633;50.980;13.850;2023-06-10T09:55:02;32.20;86.10
19000;DHT22;9633;50.980;13.850;2023-06-10T09:56:36;30.80;87.50
19000;DHT22;9633;50.980;13.850;2023-06-10T09:58:09;29.60;82.70
19000;DHT22;9633;50.980;13.850;2023-06-10T09:59:42;28.50;76.00
19000;DHT22;9633;50.980;13.850;2023-06-10T10:01:17;28.90;76.50
19000;DHT22;9633;50.980;13.850;2023-06-10T10:02:53;29.20;75.10
19000;DHT22;9633;50.980;13.850;2023-06-10T10:04:27;29.60;76.40
19000;DHT22;9633;50.980;13.850;2023-06-10T10:06:01;30.90;79.70
19000;DHT22;9633;50.980;13.850;2023-06-10T10:07:35;31.50;79.60
19000;DHT22;9633;50.980;13.850;2023-06-10T10:09:08;33.00;86.80
19000;DHT22;9633;50.980;13.850;2023-06-10T10:10:41;33.80;92.50
19000;DHT22;9633;50.980;13.850;2023-06-10T10:12:16;34.30;99.60
19000;DHT22;9633;50.980;13.850;2023-06-10T10:13:51;33.90;99.90
19000;DHT22;9633;50.980;13.850;2023-06-10T10:15:28;34.40;99.90
19000;DHT22;9633;50.980;13.850;2023-06-10T10:17:04;33.20;99.90
19000;DHT22;9633;50.980;13.850;2023-06-10T10:18:40;32.30;99.90
19000;DHT22;9633;50.980;13.850;2023-06-10T10:20:17;32.40;99.90
19000;DHT22;9633;50.980;13.850;2023-06-10T10:21:54;33.60;99.90
19000;DHT22;9633;50.980;13.850;2023-06-10T10:23:33;34.50;99.90
19000;DHT22;9633;50.980;13.850;2023-06-10T10:25:11;34.80;99.90
19000;DHT22;9633;50.980;13.850;2023-06-10T10:26:46;34.70;99.90
19000;DHT22;9633;50.980;13.850;2023-06-10T10:28:24;34.10;99.90
19000;DHT22;9633;50.980;13.850;2023-06-10T10:29:59;34.10;99.90
19000;DHT22;9633;50.980;13.850;2023-06-10T10:31:36;32.90;99.90
19000;DHT22;9633;50.980;13.850;2023-06-10T10:33:15;31.70;99.90
19000;DHT22;9633;50.980;13.850;2023-06-10T10:34:55;32.40;99.90
19000;DHT22;9633;50.980;13.850;2023-06-10T10:36:34;32.90;99.90
19000;DHT22;9633;50.980;13.850;2023-06-10T10:38:09;33.40;99.90
19000;DHT22;9633;50.980;13.850;2023-06-10T10:39:42;33.30;99.90
19000;DHT22;9633;50.980;13.850;2023-06-10T10:41:16;32.40;99.90
19000;DHT22;9633;50.980;13.850;2023-06-10T10:42:51;31.80;99.90
19000;DHT22;9633;50.980;13.850;2023-06-10T10:44:24;31.70;99.90
19000;DHT22;9633;50.980;13.850;2023-06-10T10:45:58;31.60;99.90
19000;DHT22;9633;50.980;13.850;2023-06-10T10:47:31;31.60;99.90
19000;DHT22;9633;50.980;13.850;2023-06-10T10:49:06;31.50;99.90
19000;DHT22;9633;50.980;13.850;2023-06-10T10:50:40;31.10;99.90
19000;DHT22;9633;50.980;13.850;2023-06-10T10:52:15;30.40;99.90
19000;DHT22;9633;50.980;13.850;2023-06-10T10:54:09;29.80;99.90
19000;DHT22;9633;50.980;13.850;2023-06-10T10:55:58;29.40;99.90
19000;DHT22;9633;50.980;13.850;2023-06-10T10:57:31;29.90;99.90
19000;DHT22;9633;50.980;13.850;2023-06-10T10:59:05;29.90;99.90
19000;DHT22;9633;50.980;13.850;2023-06-10T11:00:44;29.70;99.90
19000;DHT22;9633;50.980;13.850;2023-06-10T11:02:18;29.40;99.90
19000;DHT22;9633;50.980;13.850;2023-06-10T11:03:51;29.60;99.90
19000;DHT22;9633;50.980;13.850;2023-06-10T11:05:32;30.00;99.90
19000;DHT22;9633;50.980;13.850;2023-06-10T11:07:09;30.30;99.90
19000;DHT22;9633;50.980;13.850;2023-06-10T11:08:47;30.80;99.90
19000;DHT22;9633;50.980;13.850;2023-06-10T11:10:29;30.70;99.90
19000;DHT22;9633;50.980;13.850;2023-06-10T11:12:05;30.90;99.90
19000;DHT22;9633;50.980;13.850;2023-06-10T11:13:39;31.00;99.90
19000;DHT22;9633;50.980;13.850;2023-06-10T11:15:12;31.10;99.90
19000;DHT22;9633;50.980;13.850;2023-06-10T11:16:47;31.20;99.90
19000;DHT22;9633;50.980;13.850;2023-06-10T11:18:24;31.60;99.90
19000;DHT22;9633;50.980;13.850;2023-06-10T11:19:58;31.60;99.90
19000;DHT22;9633;50.980;13.850;2023-06-10T11:21:31;31.80;99.90
19000;DHT22;9633;50.980;13.850;2023-06-10T11:23:05;31.80;99.90
19000;DHT22;9633;50.980;13.850;2023-06-10T11:24:38;31.80;99.90
19000;DHT22;9633;50.980;13.850;2023-06-10T11:26:16;31.60;99.90
19000;DHT22;9633;50.980;13.850;2023-06-10T11:27:51;31.40;99.90
19000;DHT22;9633;50.980;13.850;2023-06-10T11:29:25;31.00;99.90
19000;DHT22;9633;50.980;13.850;2023-06-10T11:30:58;30.80;99.90
19000;DHT22;9633;50.980;13.850;2023-06-10T11:32:33;30.90;99.90
19000;DHT22;9633;50.980;13.850;2023-06-10T11:34:07;31.20;99.90
19000;DHT22;9633;50.980;13.850;2023-06-10T11:35:41;31.20;99.90
19000;DHT22;9633;50.980;13.850;2023-06-10T11:37:15;31.10;99.90
19000;DHT22;9633;50.980;13.850;2023-06-10T11:38:50;31.20;99.90
19000;DHT22;9633;50.980;13.850;2023-06-10T11:40:28;31.40;99.90
19000;DHT22;9633;50.980;13.850;2023-06-10T11:42:02;31.50;99.90
19000;DHT22;9633;50.980;13.850;2023-06-10T11:43:36;31.30;99.90
19000;DHT22;9633;50.980;13.850;2023-06-10T11:45:09;31.00;99.90
19000;DHT22;9633;50.980;13.850;2023-06-10T11:46:44;30.90;99.90
19000;DHT22;9633;50.980;13.850;2023-06-10T11:48:17;31.30;99.90
19000;DHT22;9633;50.980;13.850;2023-06-10T11:49:56;31.40;99.90
19000;DHT22;9633;50.980;13.850;2023-06-10T11:51:33;31.50;99.90
19000;DHT22;9633;50.980;13.850;2023-06-10T11:53:08;31.60;99.90
19000;DHT22;9633;50.980;13.850;2023-06-10T11:54:41;31.60;99.90
19000;DHT22;9633;50.980;13.850;2023-06-10T11:56:21;31.60;99.90
19000;DHT22;9633;50.980;13.850;2023-06-10T11:57:54;30.80;99.90
19000;DHT22;9633;50.980;13.850;2023-06-10T11:59:30;30.10;99.90
19000;DHT22;9633;50.980;13.850;2023-06-10T12:01:03;29.80;99.90
19000;DHT22;9633;50.980;13.850;2023-06-10T12:02:36;29.80;99.90
19000;DHT22;9633;50.980;13.850;2023-06-10T12:04:11;30.30;99.90
19000;DHT22;9633;50.980;13.850;2023-06-10T12:05:55;30.60;99.90
19000;DHT22;9633;50.980;13.850;2023-06-10T12:07:29;31.10;99.90
19000;DHT22;9633;50.980;13.850;2023-06-10T12:09:02;31.40;99.90
19000;DHT22;9633;50.980;13.850;2023-06-10T12:10:54;31.10;99.90
19000;DHT22;9633;50.980;13.850;2023-06-10T12:12:29;31.00;99.90
19000;DHT22;9633;50.980;13.850;2023-06-10T12:14:02;30.80;99.90
19000;DHT22;9633;50.980;13.850;2023-06-10T12:15:35;30.60;99.90
19000;DHT22;9633;50.980;13.850;2023-06-10T12:17:08;30.70;99.90
19000;DHT22;9633;50.980;13.850;2023-06-10T12:18:43;30.80;99.90
19000;DHT22;9633;50.980;13.850;2023-06-10T12:20:25;30.80;99.90
19000;DHT22;9633;50.980;13.850;2023-06-10T12:22:00;30.90;99.90
19000;DHT22;9633;50.980;13.850;2023-06-10T12:23:34;30.80;99.90
19000;DHT22;9633;50.980;13.850;2023-06-10T12:25:08;31.00;99.90
19000;DHT22;9633;50.980;13.850;2023-06-10T12:26:44;31.20;99.90
19000;DHT22;9633;50.980;13.850;2023-06-10T12:28:20;31.20;99.90
19000;DHT22;9633;50.980;13.850;2023-06-10T12:29:54;30.70;99.90
19000;DHT22;9633;50.980;13.850;2023-06-10T12:31:27;30.60;99.90
19000;DHT22;9633;50.980;13.850;2023-06-10T12:33:00;30.40;99.90
19000;DHT22;9633;50.980;13.850;2023-06-10T12:34:36;30.20;99.90
19000;DHT22;9633;50.980;13.850;2023-06-10T12:36:15;29.90;99.90
19000;DHT22;9633;50.980;13.850;2023-06-10T12:37:55;30.00;99.90
19000;DHT22;9633;50.980;13.850;2023-06-10T12:39:30;30.30;99.90
19000;DHT22;9633;50.980;13.850;2023-06-10T12:41:02;30.70;99.90
19000;DHT22;9633;50.980;13.850;2023-06-10T12:42:37;30.80;99.90
19000;DHT22;9633;50.980;13.850;2023-06-10T12:44:12;30.60;99.90
19000;DHT22;9633;50.980;13.850;2023-06-10T12:45:45;30.40;99.90
19000;DHT22;9633;50.980;13.850;2023-06-10T12:47:18;30.40;99.90
19000;DHT22;9633;50.980;13.850;2023-06-10T12:48:51;30.80;99.90
19000;DHT22;9633;50.980;13.850;2023-06-10T12:50:26;30.90;99.90
19000;DHT22;9633;50.980;13.850;2023-06-10T12:51:59;30.90;99.90
19000;DHT22;9633;50.980;13.850;2023-06-10T12:53:32;31.30;99.90
